Select another period ( hide this area )

Eenheden Periode Custom range Directly to
Metrisch Engels Beide
Dagelijkse Wekelijkse Maandelijkse Jaarlijkse
use both date-selectors for a custom range
previous Dag
With this date

WeatherUnderground graphs for this period ( click here )


Dagelijkse Samenvatting Maandag 19 augustus 2019
Tijd Temp. ( °C ) Dew pt. ( °C ) Wind ( km/h ) van Windvlaag ( km/h ) Luchtdruk ( hPa ) Humid.( % ) Rainrate ( cm )
Hoog17,8 15,6 19,3 Westen ( 40/109 ) 22,5 1011,1 88 -
Gemiddeld17,2 14,1 4,4 Westen #6/25 15,5 1009,1 81 -
Laag16,6 12,8 -   9,7 1007,7 75 -
Dagelijkse Tabular details for Maandag 19 augustus 2019
Tijd Temp. ( °C ) Dew pt. ( °C ) Wind ( km/h ) van Windvlaag ( km/h ) Luchtdruk ( hPa ) Humid.( % ) Rainrate ( cm )
00:00 17,2 15,0   Kalm 9,7 1007,7 87 -
00:15 17,1 15,0 4,8 Zuiden 12,9 1008,0 88 -
00:45 17,4 15,6 1,6 Zuiden 9,7 1008,0 88 -
01:15 17,6 15,6 4,8 WZW 16,1 1008,4 87 -
01:30 17,6 15,6   Kalm 14,5 1008,4 86 -
01:45 17,7 15,6 1,6 Westen 12,9 1008,4 86 -
02:00 17,7 15,0 19,3 Westen 22,5 1008,4 85 -
02:15 17,8 15,0 4,8 Westen 14,5 1008,7 83 -
02:45 17,8 15,0 1,6 ZW 16,1 1008,7 84 -
03:00 17,7 15,0 1,6 Zuiden 16,1 1008,7 84 -
03:15 17,7 15,0 3,2 WZW 9,7 1008,7 84 -
03:30 17,7 15,0 3,2 ZZO 11,3 1008,7 84 -
04:15 17,6 13,9 8,0 Westen 19,3 1009,0 78 -
04:30 17,4 13,3 6,4 WZW 22,5 1009,0 78 -
04:45 17,1 13,3 1,6 ZW 14,5 1009,0 77 -
05:00 16,9 13,3 8,0 ZW 16,1 1009,0 79 -
05:15 17,0 12,8 4,8 ZW 20,9 1009,4 77 -
06:00 16,8 12,8   Kalm 16,1 1009,7 77 -
06:15 16,7 12,8 3,2 Westen 16,1 1009,7 78 -
06:30 16,7 12,8 9,7 WZW 14,5 1009,7 78 -
06:45 16,6 12,8   Kalm 14,5 1010,0 79 -
07:15 16,7 12,8 6,4 NW 20,9 1010,4 78 -
07:30 16,7 12,8 11,3 Zuiden 14,5 1010,7 78 -
08:00 16,9 12,8 3,2 Westen 16,1 1010,7 75 -
08:15 17,1 12,8   Kalm 16,1 1011,1 76 -
Dagelijkse Samenvatting Maandag 19 augustus 2019
Tijd Temp. ( °C ) Dew pt. ( °C ) Wind ( km/h ) van Windvlaag ( km/h ) Luchtdruk ( hPa ) Humid.( % ) Rainrate ( cm )
Hoog17,8 15,6 19,3 Westen ( 40/109 ) 22,5 1011,1 88 -
Gemiddeld17,2 14,1 4,4 Westen #6/25 15,5 1009,1 81 -
Laag16,6 12,8 -   9,7 1007,7 75 -
Dagelijkse Tabular details for Maandag 19 augustus 2019
Tijd Temp. ( °C ) Dew pt. ( °C ) Wind ( km/h ) van Windvlaag ( km/h ) Luchtdruk ( hPa ) Humid.( % ) Rainrate ( cm )
00:00 17,2 15,0   Kalm 9,7 1007,7 87 -
00:15 17,1 15,0 4,8 Zuiden 12,9 1008,0 88 -
00:45 17,4 15,6 1,6 Zuiden 9,7 1008,0 88 -
01:15 17,6 15,6 4,8 WZW 16,1 1008,4 87 -
01:30 17,6 15,6   Kalm 14,5 1008,4 86 -
01:45 17,7 15,6 1,6 Westen 12,9 1008,4 86 -
02:00 17,7 15,0 19,3 Westen 22,5 1008,4 85 -
02:15 17,8 15,0 4,8 Westen 14,5 1008,7 83 -
02:45 17,8 15,0 1,6 ZW 16,1 1008,7 84 -
03:00 17,7 15,0 1,6 Zuiden 16,1 1008,7 84 -
03:15 17,7 15,0 3,2 WZW 9,7 1008,7 84 -
03:30 17,7 15,0 3,2 ZZO 11,3 1008,7 84 -
04:15 17,6 13,9 8,0 Westen 19,3 1009,0 78 -
04:30 17,4 13,3 6,4 WZW 22,5 1009,0 78 -
04:45 17,1 13,3 1,6 ZW 14,5 1009,0 77 -
05:00 16,9 13,3 8,0 ZW 16,1 1009,0 79 -
05:15 17,0 12,8 4,8 ZW 20,9 1009,4 77 -
06:00 16,8 12,8   Kalm 16,1 1009,7 77 -
06:15 16,7 12,8 3,2 Westen 16,1 1009,7 78 -
06:30 16,7 12,8 9,7 WZW 14,5 1009,7 78 -
06:45 16,6 12,8   Kalm 14,5 1010,0 79 -
07:15 16,7 12,8 6,4 NW 20,9 1010,4 78 -
07:30 16,7 12,8 11,3 Zuiden 14,5 1010,7 78 -
08:00 16,9 12,8 3,2 Westen 16,1 1010,7 75 -
08:15 17,1 12,8   Kalm 16,1 1011,1 76 -

Download your copy of this data-set  here

Our weather-data as stored at Weather Underground. Script ontwikkeld door Jim McMurry. Aangepast voor de template door Leuven-Template.eu

U vindt ons ook hier:

Het Weer Aktueel

European Weather Network

WeatherCloud

Weather Underground

Benelux Weer Netwerk

Apparatuur in gebruik:

Weerstation
Davis VP2

Weerprogramma
consoleWD

Weercomputer
Raspberry

Webleverancier
Stef van Bakel koeltechniek

Davis VP2

consoleWD

Raspberry

Stef van Bakel koeltechniek